Time;durP1;ratioP1;P1;durP2;ratioP2;P2;SDS_P1;SDS_P2;PMS_P1;PMS_P2;Temp;Humidity;BMP_temperature;BMP_pressure;BME280_temperature;BME280_humidity;BME280_pressure;Samples;Min_cycle;Max_cycle;Signal;HPM_P1;HPM_P2
2022/04/15 00:01:06;;;;;;;0.62;0.60;;;;;;;7.90;73.87;101711.98;1925602;74;21031;-64
2022/04/15 00:03:35;;;;;;;0.30;0.30;;;;;;;7.92;73.93;101723.33;1918551;75;21031;-64
2022/04/15 00:06:08;;;;;;;0.30;0.30;;;;;;;7.90;73.91;101718.55;1918299;75;21124;-64
2022/04/15 00:08:35;;;;;;;0.20;0.20;;;;;;;7.90;73.95;101723.78;1913897;75;21043;-64
2022/04/15 00:11:04;;;;;;;0.30;0.30;;;;;;;7.91;73.99;101722.88;1952899;73;21078;-63
2022/04/15 00:13:33;;;;;;;0.20;0.20;;;;;;;7.91;73.94;101717.64;1935863;74;21129;-70
2022/04/15 00:16:04;;;;;;;0.57;0.55;;;;;;;7.92;73.95;101720.25;1952855;73;21143;-69
2022/04/15 00:18:34;;;;;;;0.62;0.42;;;;;;;7.95;73.93;101722.41;1961745;72;21638;-67
2022/04/15 00:21:03;;;;;;;1.72;0.68;;;;;;;7.97;73.85;101719.31;1953126;72;21101;-66
2022/04/15 00:23:32;;;;;;;1.75;1.10;;;;;;;7.99;73.75;101721.05;1934457;74;21099;-67
2022/04/15 00:26:01;;;;;;;1.15;1.05;;;;;;;8.01;73.65;101723.66;1935891;74;21120;-65
2022/04/15 00:28:31;;;;;;;0.30;0.30;;;;;;;8.00;73.83;101717.52;1933335;74;21039;-64
2022/04/15 00:31:00;;;;;;;0.82;0.60;;;;;;;7.99;73.98;101716.26;1935792;73;21455;-69
2022/04/15 00:33:29;;;;;;;0.20;0.20;;;;;;;7.99;73.96;101710.56;1930342;74;21511;-74
2022/04/15 00:35:58;;;;;;;0.35;0.35;;;;;;;8.01;73.90;101715.34;1952254;73;21478;-65
2022/04/15 00:38:27;;;;;;;0.55;0.40;;;;;;;8.01;73.87;101717.96;1952231;73;20992;-65
2022/04/15 00:40:55;;;;;;;1.07;0.42;;;;;;;8.03;73.90;101721.43;1952283;73;21080;-66
2022/04/15 00:43:24;;;;;;;0.70;0.70;;;;;;;8.03;73.83;101717.95;1938134;73;21038;-63
2022/04/15 00:45:53;;;;;;;1.15;1.12;;;;;;;8.05;73.77;101719.65;1943532;73;21866;-65
2022/04/15 00:48:24;;;;;;;0.30;0.30;;;;;;;8.07;73.79;101729.67;1952987;73;21046;-62
2022/04/15 00:50:52;;;;;;;0.25;0.25;;;;;;;8.07;73.77;101715.25;1952798;73;21082;-65
2022/04/15 00:53:24;;;;;;;0.55;0.55;;;;;;;8.09;73.75;101731.83;1952927;73;21043;-65
2022/04/15 00:55:57;;;;;;;0.53;0.53;;;;;;;8.10;73.66;101730.95;1952913;73;21082;-65
2022/04/15 00:58:27;;;;;;;9.95;0.90;;;;;;;8.11;73.62;101737.95;1952872;73;21034;-65
2022/04/15 01:01:00;;;;;;;0.57;0.33;;;;;;;8.12;73.56;101734.42;1953045;73;21022;-64
2022/04/15 01:03:30;;;;;;;0.62;0.57;;;;;;;8.14;73.53;101735.72;1945164;73;21547;-66
2022/04/15 01:06:00;;;;;;;2.98;2.00;;;;;;;8.15;73.49;101739.20;1947100;73;21007;-67
2022/04/15 01:08:31;;;;;;;1.95;1.70;;;;;;;8.17;73.47;101742.67;1958788;72;20999;-68
2022/04/15 01:11:03;;;;;;;5.80;1.42;;;;;;;8.18;73.43;101740.48;1930085;73;21218;-67
2022/04/15 01:13:36;;;;;;;3.83;2.47;;;;;;;8.19;73.46;101746.14;1924319;73;21135;-63
2022/04/15 01:16:06;;;;;;;2.12;1.70;;;;;;;8.18;73.49;101741.80;1924220;74;21554;-63
2022/04/15 01:18:34;;;;;;;1.82;0.95;;;;;;;8.19;73.40;101742.20;1922634;74;21084;-63
2022/04/15 01:21:04;;;;;;;3.00;1.20;;;;;;;8.21;73.41;101747.02;1911469;74;21155;-62
2022/04/15 01:23:33;;;;;;;0.50;0.50;;;;;;;8.21;73.39;101741.31;1904595;75;21051;-66
2022/04/15 01:26:02;;;;;;;0.47;0.47;;;;;;;8.21;73.41;101747.02;1891727;75;21134;-63
2022/04/15 01:28:30;;;;;;;0.20;0.20;;;;;;;8.22;73.35;101740.41;1898676;75;21036;-63
2022/04/15 01:30:59;;;;;;;0.72;0.20;;;;;;;8.23;73.37;101746.55;1902593;75;21141;-68
2022/04/15 01:33:27;;;;;;;0.55;0.30;;;;;;;8.22;73.37;101751.36;1902285;75;21026;-65
2022/04/15 01:35:56;;;;;;;0.30;0.30;;;;;;;8.21;73.40;101748.33;1905860;75;21204;-63
2022/04/15 01:38:25;;;;;;;0.20;0.20;;;;;;;8.21;73.39;101743.08;1903164;75;21140;-62
2022/04/15 01:40:53;;;;;;;0.20;0.20;;;;;;;8.22;73.34;101744.80;1901848;75;21130;-63
2022/04/15 01:43:22;;;;;;;0.30;0.30;;;;;;;8.21;73.35;101748.33;1890934;75;21029;-64
2022/04/15 01:45:51;;;;;;;0.20;0.20;;;;;;;8.21;73.31;101745.70;1898631;75;21524;-66
2022/04/15 01:48:19;;;;;;;0.55;0.30;;;;;;;8.20;73.29;101743.95;1895761;75;21070;-66
2022/04/15 01:50:48;;;;;;;0.28;0.28;;;;;;;8.20;73.35;101743.95;1899478;75;21019;-65
2022/04/15 01:53:17;;;;;;;0.30;0.30;;;;;;;8.17;73.42;101744.88;1888613;75;21116;-66
2022/04/15 01:55:46;;;;;;;0.88;0.80;;;;;;;8.16;73.48;101742.27;1922066;74;21009;-67
2022/04/15 01:58:14;;;;;;;0.33;0.33;;;;;;;8.16;73.47;101749.69;1891141;76;21026;-67
2022/04/15 02:00:43;;;;;;;0.20;0.20;;;;;;;8.16;73.48;101751.00;1890321;75;21086;-71
2022/04/15 02:03:11;;;;;;;0.23;0.23;;;;;;;8.18;73.39;101756.23;1921522;73;21028;-66
2022/04/15 02:05:40;;;;;;;10.43;0.40;;;;;;;8.20;73.32;101760.56;1888682;76;21041;-67
2022/04/15 02:08:09;;;;;;;0.20;0.20;;;;;;;8.22;73.25;101761.86;1888826;76;21512;-66
2022/04/15 02:10:38;;;;;;;0.15;0.15;;;;;;;8.23;73.22;101756.59;1905241;74;21075;-67
2022/04/15 02:13:07;;;;;;;0.20;0.20;;;;;;;8.23;73.19;101760.53;1923601;74;21026;-65
2022/04/15 02:15:36;;;;;;;0.57;0.20;;;;;;;8.25;73.19;101765.77;1910369;75;21035;-64
2022/04/15 02:18:05;;;;;;;0.20;0.20;;;;;;;8.24;73.21;101764.87;1923635;73;21070;-64
2022/04/15 02:20:33;;;;;;;0.20;0.20;;;;;;;8.24;73.23;101763.56;1898643;74;21092;-62
2022/04/15 02:23:02;;;;;;;0.17;0.17;;;;;;;8.23;73.19;101760.98;1903850;75;21027;-63
2022/04/15 02:25:31;;;;;;;0.20;0.20;;;;;;;8.23;73.24;101767.54;1923606;74;21095;-63
2022/04/15 02:27:59;;;;;;;0.20;0.20;;;;;;;8.23;73.22;101767.54;1906265;75;21092;-63
2022/04/15 02:30:28;;;;;;;0.30;0.30;;;;;;;8.23;73.30;101768.85;1907661;75;21041;-65
2022/04/15 02:32:57;;;;;;;0.20;0.20;;;;;;;8.22;73.31;101767.96;1907749;75;21124;-65
2022/04/15 02:35:26;;;;;;;0.20;0.20;;;;;;;8.24;73.21;101763.56;1902228;75;21104;-64
2022/04/15 02:37:54;;;;;;;0.20;0.20;;;;;;;8.23;73.31;101771.48;1898487;75;21047;-65
2022/04/15 02:40:23;;;;;;;0.20;0.20;;;;;;;8.23;73.35;101772.79;1901354;74;21047;-65
2022/04/15 02:42:51;;;;;;;0.57;0.20;;;;;;;8.23;73.28;101768.85;1882937;75;21157;-67
2022/04/15 02:45:21;;;;;;;0.20;0.20;;;;;;;8.24;73.34;101775.37;1892938;75;21030;-67
2022/04/15 02:47:50;;;;;;;0.30;0.30;;;;;;;8.25;73.33;101782.36;1899976;75;21030;-68
2022/04/15 02:50:19;;;;;;;0.20;0.20;;;;;;;8.25;73.33;101777.12;1881332;75;21047;-66
2022/04/15 02:52:49;;;;;;;0.50;0.50;;;;;;;8.28;73.32;101782.75;1881074;75;21112;-64
2022/04/15 02:55:18;;;;;;;0.30;0.30;;;;;;;8.29;73.23;101783.20;1896957;75;21018;-65
2022/04/15 02:57:46;;;;;;;0.30;0.30;;;;;;;8.29;73.19;101782.73;1919055;74;21418;-63
2022/04/15 03:00:15;;;;;;;0.20;0.20;;;;;;;8.28;73.24;101784.06;1919151;74;21002;-64
2022/04/15 03:02:44;;;;;;;0.60;0.60;;;;;;;8.29;73.25;101782.73;1920711;75;21074;-65
2022/04/15 03:05:13;;;;;;;0.20;0.20;;;;;;;8.30;73.21;101783.18;1920945;75;21023;-67
2022/04/15 03:07:41;;;;;;;0.75;0.57;;;;;;;8.31;73.15;101786.66;1919124;75;21231;-66
2022/04/15 03:10:10;;;;;;;0.40;0.40;;;;;;;8.29;73.14;101786.68;1920539;75;20995;-67
2022/04/15 03:12:41;;;;;;;0.33;0.23;;;;;;;8.25;73.17;101782.81;1934473;73;21130;-64
2022/04/15 03:15:10;;;;;;;0.30;0.30;;;;;;;8.24;73.21;101790.25;1909720;75;21105;-65
2022/04/15 03:17:39;;;;;;;0.45;0.40;;;;;;;8.24;73.26;101790.25;1909706;75;21035;-66
2022/04/15 03:20:09;;;;;;;0.20;0.20;;;;;;;8.24;73.35;101782.37;1944942;74;21094;-64
2022/04/15 03:22:43;;;;;;;0.25;0.25;;;;;;;8.28;73.29;101797.19;1960190;73;21049;-65
2022/04/15 03:25:17;;;;;;;0.23;0.23;;;;;;;8.30;73.38;101792.81;1972308;73;21049;-64
2022/04/15 03:27:47;;;;;;;1.07;0.78;;;;;;;8.33;73.31;101799.77;1972404;73;21029;-65
2022/04/15 03:30:16;;;;;;;0.75;0.65;;;;;;;8.37;73.30;101804.94;1972195;73;21045;-66
2022/04/15 03:32:49;;;;;;;0.20;0.20;;;;;;;8.40;73.21;101806.23;1972498;72;21112;-65
2022/04/15 03:35:23;;;;;;;0.20;0.20;;;;;;;8.41;73.14;101811.91;1953205;72;21019;-64
2022/04/15 03:37:50;;;;;;;1.12;0.33;;;;;;;8.45;73.09;101816.27;1964193;73;21013;-68
2022/04/15 03:40:20;;;;;;;0.25;0.25;;;;;;;8.49;73.06;101823.20;1935930;74;21427;-67
2022/04/15 03:42:51;;;;;;;0.35;0.35;;;;;;;8.53;73.00;101820.55;1931744;74;21454;-67
2022/04/15 03:45:22;;;;;;;0.20;0.20;;;;;;;8.57;72.92;101823.55;1926732;74;21454;-65
2022/04/15 03:47:54;;;;;;;0.20;0.20;;;;;;;8.61;72.86;101822.61;1926837;74;21000;-65
2022/04/15 03:50:24;;;;;;;0.95;0.28;;;;;;;8.62;72.80;101821.28;1926970;74;21473;-65
2022/04/15 03:52:54;;;;;;;0.30;0.30;;;;;;;8.69;72.70;101827.33;1926920;74;21450;-64
2022/04/15 03:55:27;;;;;;;0.50;0.50;;;;;;;8.74;72.56;101830.73;1931990;73;21032;-64
2022/04/15 03:57:55;;;;;;;0.37;0.37;;;;;;;8.77;72.50;101830.70;1936056;74;21093;-63
2022/04/15 04:00:25;;;;;;;0.30;0.30;;;;;;;8.81;72.39;101837.64;1935784;74;21451;-63
2022/04/15 04:02:55;;;;;;;0.20;0.20;;;;;;;8.84;72.38;101837.61;1935915;74;21004;-63
2022/04/15 04:05:24;;;;;;;0.30;0.30;;;;;;;8.87;72.31;101834.95;1935839;74;21494;-64
2022/04/15 04:07:53;;;;;;;0.15;0.15;;;;;;;8.95;72.27;101840.08;1935611;74;21470;-68
2022/04/15 04:10:22;;;;;;;0.20;0.20;;;;;;;9.03;72.18;101838.20;1936046;74;21004;-66
2022/04/15 04:12:51;;;;;;;0.53;0.30;;;;;;;9.14;72.15;101840.66;1935882;74;21514;-65
2022/04/15 04:15:20;;;;;;;3.15;0.33;;;;;;;9.22;71.97;101836.17;1931371;74;21027;-66
2022/04/15 04:17:49;;;;;;;0.45;0.45;;;;;;;9.30;71.80;101839.13;1891829;75;21693;-68
2022/04/15 04:20:18;;;;;;;0.20;0.20;;;;;;;9.35;71.62;101839.90;1893608;75;21047;-67
2022/04/15 04:22:47;;;;;;;0.30;0.30;;;;;;;9.34;71.55;101847.37;1887967;75;21077;-65
2022/04/15 04:25:16;;;;;;;0.30;0.30;;;;;;;9.31;71.45;101852.67;1894296;75;21034;-67
2022/04/15 04:27:44;;;;;;;2.02;0.68;;;;;;;9.26;71.55;101852.77;1943644;73;21046;-67
2022/04/15 04:30:14;;;;;;;0.40;0.40;;;;;;;9.22;71.57;101851.95;1889581;75;21039;-67
2022/04/15 04:32:52;;;;;;;0.98;0.70;;;;;;;9.21;71.59;101852.82;1946468;73;21145;-66
2022/04/15 04:35:22;;;;;;;0.20;0.20;;;;;;;9.20;71.62;101860.72;1938988;73;21163;-65
2022/04/15 04:37:51;;;;;;;0.30;0.30;;;;;;;9.18;71.62;101861.20;1944475;73;21076;-64
2022/04/15 04:40:19;;;;;;;0.30;0.30;;;;;;;9.16;71.68;101861.21;1945046;73;21007;-65
2022/04/15 04:42:50;;;;;;;0.42;0.42;;;;;;;9.14;71.63;101859.06;1941316;73;21161;-65
2022/04/15 04:45:20;;;;;;;0.30;0.30;;;;;;;9.14;71.64;101861.69;1890566;73;21523;-57
2022/04/15 04:47:50;;;;;;;0.30;0.30;;;;;;;9.13;71.65;101864.33;1866954;75;21547;-59
2022/04/15 04:50:19;;;;;;;0.30;0.30;;;;;;;9.13;71.66;101867.85;1895541;75;21484;-59
2022/04/15 04:52:49;;;;;;;0.47;0.47;;;;;;;9.15;71.65;101867.37;1891653;76;21595;-59
2022/04/15 04:55:18;;;;;;;0.20;0.20;;;;;;;9.16;71.66;101862.53;1880335;76;21543;-58
2022/04/15 04:57:47;;;;;;;1.10;0.30;;;;;;;9.18;71.61;101872.56;1880313;76;21493;-59
2022/04/15 05:00:17;;;;;;;0.30;0.30;;;;;;;9.19;71.58;101862.49;1880221;76;21083;-59
2022/04/15 05:02:46;;;;;;;0.20;0.20;;;;;;;9.21;71.53;101873.84;1885389;75;21030;-59
2022/04/15 05:05:15;;;;;;;0.28;0.28;;;;;;;9.25;71.46;101875.53;1901326;75;21428;-59
2022/04/15 05:07:43;;;;;;;0.40;0.40;;;;;;;9.30;71.37;101879.88;1897556;74;21038;-59
2022/04/15 05:10:12;;;;;;;3.15;0.30;;;;;;;9.31;71.28;101875.88;1897654;75;21053;-59
2022/04/15 05:12:41;;;;;;;0.20;0.20;;;;;;;9.32;71.24;101878.94;1897618;75;21049;-58
2022/04/15 05:15:11;;;;;;;0.40;0.40;;;;;;;9.35;71.21;101880.22;1897606;75;21046;-59
2022/04/15 05:17:40;;;;;;;0.20;0.20;;;;;;;9.40;71.17;101881.44;1897460;75;21123;-59
2022/04/15 05:20:09;;;;;;;3.05;0.62;;;;;;;9.43;71.11;101879.64;1897636;75;21112;-59
2022/04/15 05:22:38;;;;;;;1.82;0.37;;;;;;;9.46;71.13;101889.22;1897649;75;21120;-59
2022/04/15 05:25:07;;;;;;;0.50;0.50;;;;;;;9.48;71.18;101888.78;1897529;75;21046;-59
2022/04/15 05:27:36;;;;;;;0.53;0.53;;;;;;;9.52;71.08;101888.28;1897658;74;21163;-59
2022/04/15 05:30:06;;;;;;;1.17;0.30;;;;;;;9.56;71.00;101888.65;1897384;75;21046;-59
2022/04/15 05:32:34;;;;;;;2.60;0.57;;;;;;;9.58;70.95;101887.72;1897506;75;21137;-59
2022/04/15 05:35:04;;;;;;;1.85;1.05;;;;;;;9.62;70.93;101890.71;1897660;75;21127;-58
2022/04/15 05:40:49;;;;;;;0.90;0.85;;;;;;;9.69;70.84;101899.38;1869969;75;21110;-58
2022/04/15 05:43:18;;;;;;;2.67;0.55;;;;;;;9.74;70.77;101894.02;1865665;77;21121;-58
2022/04/15 05:45:46;;;;;;;0.30;0.30;;;;;;;9.77;70.70;101897.92;1872111;76;21087;-57
2022/04/15 05:48:15;;;;;;;0.30;0.30;;;;;;;9.83;70.67;101900.44;1883328;76;21125;-57
2022/04/15 05:50:44;;;;;;;0.30;0.30;;;;;;;9.88;70.57;101895.97;1883419;76;21124;-57
2022/04/15 05:53:16;;;;;;;1.95;0.40;;;;;;;9.92;70.47;101902.91;1883191;75;21086;-57
2022/04/15 05:55:45;;;;;;;0.40;0.40;;;;;;;9.96;70.40;101904.62;1883317;75;21116;-58
2022/04/15 05:58:14;;;;;;;0.20;0.20;;;;;;;10.03;70.33;101915.88;1883360;76;21113;-56
2022/04/15 06:00:43;;;;;;;0.30;0.30;;;;;;;10.08;70.31;101911.86;1883321;76;21051;-57
2022/04/15 06:03:11;;;;;;;0.20;0.20;;;;;;;10.16;70.19;101915.21;1883317;76;21546;-57
2022/04/15 06:05:40;;;;;;;0.95;0.50;;;;;;;10.21;70.09;101919.48;1883184;76;21051;-57
2022/04/15 06:08:09;;;;;;;0.20;0.20;;;;;;;10.24;70.02;101925.16;1883307;76;21019;-57
2022/04/15 06:10:37;;;;;;;0.30;0.30;;;;;;;10.23;69.81;101922.10;1883392;75;21054;-57
2022/04/15 06:13:10;;;;;;;1.05;0.40;;;;;;;10.20;69.91;101920.41;1883344;75;21156;-57
2022/04/15 06:15:41;;;;;;;0.30;0.30;;;;;;;10.19;69.98;101929.64;1883547;75;21074;-59
2022/04/15 06:18:08;;;;;;;0.40;0.40;;;;;;;10.20;69.96;101932.70;1883396;75;21077;-59
2022/04/15 06:20:36;;;;;;;0.30;0.30;;;;;;;10.23;69.90;101929.99;1883285;76;21602;-59
2022/04/15 06:23:05;;;;;;;0.23;0.23;;;;;;;10.27;69.83;101935.61;1883317;76;21023;-59
2022/04/15 06:25:34;;;;;;;0.50;0.50;;;;;;;10.31;69.75;101940.41;1883385;76;21050;-59
2022/04/15 06:28:02;;;;;;;0.78;0.40;;;;;;;10.37;69.70;101948.22;1883313;76;21050;-58
2022/04/15 06:30:31;;;;;;;0.50;0.40;;;;;;;10.35;69.69;101952.19;1883183;76;21116;-59
2022/04/15 06:33:00;;;;;;;1.85;0.30;;;;;;;10.35;69.73;101952.64;1883266;76;21137;-59
2022/04/15 06:35:29;;;;;;;1.02;0.50;;;;;;;10.36;69.76;101953.91;1883482;75;21099;-59
2022/04/15 06:37:57;;;;;;;0.47;0.47;;;;;;;10.36;69.72;101954.36;1883378;76;21054;-59
2022/04/15 06:40:26;;;;;;;0.20;0.20;;;;;;;10.37;69.56;101952.16;1880213;76;21040;-59
2022/04/15 06:42:54;;;;;;;0.30;0.30;;;;;;;10.37;69.54;101961.38;1878905;76;21142;-59
2022/04/15 06:45:23;;;;;;;0.40;0.30;;;;;;;10.35;69.54;101954.82;1879011;76;21482;-58
2022/04/15 06:47:52;;;;;;;0.40;0.40;;;;;;;10.39;69.49;101952.55;1877787;75;21090;-58
2022/04/15 06:50:21;;;;;;;0.30;0.30;;;;;;;10.43;69.46;101956.84;1877767;76;21615;-58
2022/04/15 06:52:50;;;;;;;0.30;0.20;;;;;;;10.51;69.37;101961.10;1877823;76;21086;-58
2022/04/15 06:55:19;;;;;;;0.20;0.20;;;;;;;10.58;69.27;101952.19;1877757;76;21063;-58
2022/04/15 06:57:48;;;;;;;2.35;1.50;;;;;;;10.56;69.08;101956.62;1877732;76;21055;-58
2022/04/15 07:00:17;;;;;;;0.30;0.23;;;;;;;10.59;69.14;101960.06;1877877;76;21169;-58
2022/04/15 07:02:46;;;;;;;0.68;0.25;;;;;;;10.64;69.12;101962.59;1877858;76;21043;-58
2022/04/15 07:05:14;;;;;;;0.28;0.28;;;;;;;10.69;68.90;101965.15;1877719;76;21106;-58
2022/04/15 07:07:43;;;;;;;1.07;0.40;;;;;;;10.72;68.94;101965.95;1877727;76;21051;-58
2022/04/15 07:10:13;;;;;;;1.80;0.42;;;;;;;10.74;68.83;101964.62;1877824;76;21517;-59
2022/04/15 07:12:42;;;;;;;0.72;0.53;;;;;;;10.81;68.96;101968.86;1877810;76;21047;-58
2022/04/15 07:15:11;;;;;;;0.30;0.30;;;;;;;10.88;68.84;101968.27;1877706;76;21047;-58
2022/04/15 07:17:40;;;;;;;0.42;0.42;;;;;;;10.95;68.76;101968.56;1877715;76;21012;-58
2022/04/15 07:20:10;;;;;;;0.30;0.30;;;;;;;11.05;68.65;101974.07;1877737;76;21048;-58
2022/04/15 07:22:38;;;;;;;0.60;0.47;;;;;;;11.09;68.47;101966.51;1877617;76;21083;-60
2022/04/15 07:25:08;;;;;;;0.30;0.30;;;;;;;11.17;68.42;101975.10;1877645;76;21109;-59
2022/04/15 07:27:36;;;;;;;3.92;2.05;;;;;;;11.19;68.23;101975.97;1877867;76;21051;-58
2022/04/15 07:30:06;;;;;;;0.88;0.78;;;;;;;11.26;68.09;101978.45;1877717;76;21048;-58
2022/04/15 07:32:35;;;;;;;0.40;0.40;;;;;;;11.34;68.12;101978.71;1877630;76;21095;-58
2022/04/15 07:35:04;;;;;;;10.58;0.50;;;;;;;11.40;67.79;101981.66;1877694;76;21196;-59
2022/04/15 07:37:32;;;;;;;3.40;0.40;;;;;;;11.41;67.66;101980.73;1877769;76;21079;-58
2022/04/15 07:40:01;;;;;;;0.45;0.45;;;;;;;11.44;67.32;101985.09;1877184;76;21059;-58
2022/04/15 07:42:30;;;;;;;0.53;0.53;;;;;;;11.49;67.46;101980.55;1877014;76;21063;-58
2022/04/15 07:44:59;;;;;;;0.55;0.45;;;;;;;11.51;67.14;101984.02;1876805;76;21470;-57
2022/04/15 07:47:27;;;;;;;0.23;0.23;;;;;;;11.56;67.31;101983.05;1877622;74;21105;-58
2022/04/15 07:49:56;;;;;;;12.73;2.42;;;;;;;11.60;66.70;101982.52;1880036;76;21016;-58
2022/04/15 07:52:24;;;;;;;3.05;1.30;;;;;;;11.62;66.83;101985.09;1880183;76;21047;-58
2022/04/15 07:54:53;;;;;;;1.75;1.27;;;;;;;11.67;66.92;101975.31;1880354;76;21090;-58
2022/04/15 07:57:26;;;;;;;4.17;0.78;;;;;;;11.79;66.84;101981.16;1880368;76;21124;-58
2022/04/15 07:59:52;;;;;;;1.27;0.88;;;;;;;11.87;66.53;101975.69;1880516;75;21047;-57
2022/04/15 08:02:21;;;;;;;24.05;1.37;;;;;;;11.92;66.00;101976.48;1880139;76;21046;-58
2022/04/15 08:04:50;;;;;;;1.35;0.82;;;;;;;12.05;66.16;101984.11;1880227;76;21113;-58
2022/04/15 08:07:18;;;;;;;3.37;0.72;;;;;;;12.16;65.94;101979.41;1880440;75;21477;-59
2022/04/15 08:09:47;;;;;;;4.35;0.88;;;;;;;12.25;65.70;101980.95;1880247;75;21106;-59
2022/04/15 08:12:16;;;;;;;0.42;0.42;;;;;;;12.21;65.44;101974.88;1880259;76;21047;-59
2022/04/15 08:14:44;;;;;;;1.95;0.50;;;;;;;12.19;64.97;101983.30;1880193;76;21055;-59
2022/04/15 08:17:13;;;;;;;0.30;0.30;;;;;;;12.12;65.16;101977.77;1880260;76;21071;-59
2022/04/15 08:19:42;;;;;;;3.90;0.50;;;;;;;12.14;65.51;101970.67;1880400;76;21059;-58
2022/04/15 08:22:11;;;;;;;0.72;0.50;;;;;;;12.07;64.79;101980.97;1880253;76;21557;-59
2022/04/15 08:24:42;;;;;;;7.53;1.05;;;;;;;12.14;65.15;101978.59;1880291;76;21059;-59
2022/04/15 08:27:10;;;;;;;1.75;0.60;;;;;;;12.22;65.26;101973.96;1880345;75;21622;-59
2022/04/15 08:29:39;;;;;;;0.55;0.47;;;;;;;12.32;64.87;101975.47;1880443;75;21481;-60
2022/04/15 08:32:09;;;;;;;0.93;0.50;;;;;;;12.37;64.83;101975.33;1880334;75;21110;-60
2022/04/15 08:34:40;;;;;;;4.22;0.50;;;;;;;12.48;64.84;101971.94;1880338;76;21098;-59
2022/04/15 08:37:09;;;;;;;2.22;0.88;;;;;;;12.54;64.46;101976.19;1880227;76;21062;-59
2022/04/15 08:39:38;;;;;;;1.87;1.00;;;;;;;12.58;64.59;101972.58;1888623;75;21520;-59
2022/04/15 08:42:09;;;;;;;0.50;0.47;;;;;;;12.62;64.08;101972.89;1902457;75;21046;-58
2022/04/15 08:44:37;;;;;;;0.35;0.35;;;;;;;12.71;64.20;101979.23;1902582;75;21050;-58
2022/04/15 08:47:08;;;;;;;0.40;0.40;;;;;;;12.81;64.11;101973.69;1902649;75;21049;-59
2022/04/15 08:49:37;;;;;;;0.30;0.30;;;;;;;12.86;63.79;101973.11;1889333;75;21082;-59
2022/04/15 08:52:07;;;;;;;1.67;1.20;;;;;;;12.87;63.30;101970.86;1889193;76;21031;-58
2022/04/15 08:54:36;;;;;;;0.95;0.80;;;;;;;12.86;63.32;101973.97;1889025;76;21505;-58
2022/04/15 08:57:05;;;;;;;0.30;0.30;;;;;;;12.94;63.18;101976.38;1889307;76;21050;-58
2022/04/15 08:59:34;;;;;;;2.87;0.60;;;;;;;12.95;62.94;101975.48;1889181;76;21145;-59
2022/04/15 09:02:03;;;;;;;17.15;0.75;;;;;;;12.96;62.64;101974.56;1889284;76;21136;-58
2022/04/15 09:04:33;;;;;;;0.40;0.40;;;;;;;13.04;62.28;101975.22;1889220;76;21121;-58
2022/04/15 09:07:02;;;;;;;0.40;0.40;;;;;;;13.13;61.74;101968.77;1889176;76;21521;-57
2022/04/15 09:09:33;;;;;;;1.80;0.35;;;;;;;13.34;61.07;101973.91;1889271;76;21546;-57
2022/04/15 09:12:05;;;;;;;0.47;0.30;;;;;;;13.59;60.90;101973.98;1889271;76;21046;-57
2022/04/15 09:14:34;;;;;;;0.30;0.30;;;;;;;13.93;60.77;101962.77;1889133;76;21035;-57
2022/04/15 09:17:04;;;;;;;0.40;0.40;;;;;;;14.17;60.47;101964.58;1889141;76;21055;-57
2022/04/15 09:19:35;;;;;;;0.55;0.50;;;;;;;14.51;60.12;101962.52;1889042;76;21129;-57
2022/04/15 09:22:04;;;;;;;0.40;0.40;;;;;;;14.83;59.70;101961.38;1889298;76;21042;-59
2022/04/15 09:24:34;;;;;;;0.33;0.33;;;;;;;15.44;59.35;101952.36;1863120;76;21098;-60
2022/04/15 09:27:06;;;;;;;0.40;0.40;;;;;;;16.00;58.33;101955.42;1866015;76;21031;-59
2022/04/15 09:29:36;;;;;;;0.40;0.40;;;;;;;16.20;56.53;101948.78;1882696;76;21595;-60
2022/04/15 09:32:19;;;;;;;0.75;0.57;;;;;;;16.33;55.68;101957.08;1882595;76;21070;-60
2022/04/15 09:34:55;;;;;;;0.35;0.30;;;;;;;16.25;55.66;101946.38;1879623;74;21208;-59
2022/04/15 09:37:30;;;;;;;0.55;0.40;;;;;;;15.97;54.77;101957.75;1868516;74;21056;-59
2022/04/15 09:40:27;;;;;;;0.23;0.23;;;;;;;15.63;55.08;101958.25;1868296;76;21051;-58
2022/04/15 09:42:57;;;;;;;0.70;0.62;;;;;;;15.56;55.35;101954.97;1880237;76;21028;-59
2022/04/15 09:45:29;;;;;;;2.75;0.70;;;;;;;15.61;55.34;101954.33;1880310;76;21480;-60
2022/04/15 09:48:12;;;;;;;4.08;0.65;;;;;;;15.59;55.94;101947.36;1880330;76;21051;-60
2022/04/15 09:50:45;;;;;;;0.62;0.50;;;;;;;15.52;55.70;101956.50;1880324;76;21090;-60
2022/04/15 09:53:16;;;;;;;1.00;0.45;;;;;;;15.43;55.76;101951.94;1873624;76;21571;-60
2022/04/15 09:55:46;;;;;;;0.30;0.30;;;;;;;15.50;55.16;101957.02;1867548;76;21047;-60
2022/04/15 09:58:18;;;;;;;0.30;0.30;;;;;;;15.17;54.62;101954.78;1867536;76;21051;-60
2022/04/15 10:00:51;;;;;;;1.35;0.40;;;;;;;15.15;55.81;101950.85;1866699;76;21588;-60
2022/04/15 10:03:22;;;;;;;1.15;1.07;;;;;;;15.30;55.58;101954.69;1867443;76;21135;-60
2022/04/15 10:05:54;;;;;;;2.90;0.53;;;;;;;15.51;55.38;101952.09;1867429;77;21055;-58
2022/04/15 10:08:25;;;;;;;3.33;0.45;;;;;;;15.75;55.02;101950.27;1867448;76;21051;-57
2022/04/15 10:10:55;;;;;;;0.50;0.50;;;;;;;15.93;54.83;101953.47;1867450;76;21027;-57
2022/04/15 10:13:28;;;;;;;1.65;0.70;;;;;;;16.05;54.55;101952.11;1867380;76;21510;-57
2022/04/15 10:15:55;;;;;;;6.08;0.65;;;;;;;16.14;53.62;101950.39;1867097;75;21048;-58
2022/04/15 10:18:26;;;;;;;0.50;0.47;;;;;;;16.32;53.75;101951.83;1867482;76;21510;-59
2022/04/15 10:20:55;;;;;;;4.42;0.70;;;;;;;16.70;53.82;101951.92;1876649;76;21438;-59
2022/04/15 10:23:25;;;;;;;0.42;0.30;;;;;;;17.31;52.39;101947.74;1883349;76;21128;-58
2022/04/15 10:25:55;;;;;;;0.50;0.50;;;;;;;17.97;52.65;101942.80;1879885;76;21091;-58
2022/04/15 10:28:38;;;;;;;1.57;0.78;;;;;;;18.31;51.85;101943.23;1873083;76;21557;-59
2022/04/15 10:31:13;;;;;;;0.40;0.40;;;;;;;18.25;50.80;101936.89;1884700;76;21046;-58
2022/04/15 10:33:43;;;;;;;0.82;0.72;;;;;;;17.93;50.29;101940.28;1884398;76;21007;-58
2022/04/15 10:36:14;;;;;;;1.57;0.95;;;;;;;17.75;50.49;101940.70;1884596;76;21066;-57
2022/04/15 10:39:06;;;;;;;0.60;0.60;;;;;;;17.69;50.94;101934.84;1884480;76;21584;-61
2022/04/15 10:41:52;;;;;;;1.50;0.60;;;;;;;17.81;51.10;101932.02;1884489;76;21543;-59
2022/04/15 10:44:29;;;;;;;0.93;0.40;;;;;;;17.54;51.05;101928.47;1871111;76;21169;-60
2022/04/15 10:47:06;;;;;;;1.42;0.98;;;;;;;17.25;50.83;101929.89;1852732;77;21047;-60
2022/04/15 10:49:37;;;;;;;0.62;0.60;;;;;;;16.96;50.65;101934.31;1860151;75;21553;-59
2022/04/15 10:52:18;;;;;;;0.75;0.70;;;;;;;16.56;51.61;101924.17;1874102;76;21071;-58
2022/04/15 10:54:48;;;;;;;1.20;0.75;;;;;;;16.34;51.81;101920.73;1878052;76;21023;-60
2022/04/15 10:57:22;;;;;;;0.85;0.62;;;;;;;16.21;52.43;101923.95;1878965;76;21120;-60
2022/04/15 11:02:51;;;;;;;1.25;0.50;;;;;;;16.03;52.73;101930.06;1878931;76;21027;-59
2022/04/15 11:05:44;;;;;;;0.40;0.40;;;;;;;15.80;53.10;101917.27;1850304;76;21109;-58
2022/04/15 11:08:17;;;;;;;0.30;0.30;;;;;;;15.61;53.57;101922.94;1878877;76;21075;-59
2022/04/15 11:10:58;;;;;;;0.70;0.40;;;;;;;15.39;53.93;101918.50;1879145;76;21047;-58
2022/04/15 11:13:44;;;;;;;0.40;0.40;;;;;;;15.11;54.31;101924.52;1870677;76;21481;-59
2022/04/15 11:16:14;;;;;;;3.47;0.53;;;;;;;14.89;54.69;101927.14;1849183;76;21054;-59
2022/04/15 11:18:57;;;;;;;0.35;0.35;;;;;;;14.74;54.94;101928.11;1847424;78;21082;-59
2022/04/15 11:21:29;;;;;;;0.78;0.53;;;;;;;14.57;55.11;101922.13;1847523;78;21062;-58
2022/04/15 11:24:04;;;;;;;2.40;0.87;;;;;;;14.49;55.48;101918.37;1847672;77;21462;-57
2022/04/15 11:26:34;;;;;;;0.57;0.53;;;;;;;14.47;55.65;101914.06;1849543;76;21493;-58
2022/04/15 11:29:05;;;;;;;0.37;0.37;;;;;;;14.52;55.77;101915.23;1847301;78;21630;-58
2022/04/15 11:31:35;;;;;;;0.57;0.40;;;;;;;14.61;55.82;101915.78;1850734;76;21501;-58
2022/04/15 11:34:07;;;;;;;1.65;0.50;;;;;;;14.61;55.64;101916.25;1879027;76;21051;-58
2022/04/15 11:36:41;;;;;;;4.53;0.47;;;;;;;14.52;55.70;101919.20;1878901;76;21043;-58
2022/04/15 11:39:12;;;;;;;0.40;0.40;;;;;;;14.45;55.93;101918.55;1876812;76;21140;-58
2022/04/15 11:41:52;;;;;;;0.95;0.68;;;;;;;14.49;55.97;101917.52;1877836;75;21861;-58
2022/04/15 11:44:22;;;;;;;7.83;0.75;;;;;;;14.49;56.07;101914.86;1889561;76;21500;-60
2022/04/15 11:46:55;;;;;;;1.40;0.40;;;;;;;14.56;56.21;101916.38;1884864;76;21070;-59
2022/04/15 11:49:28;;;;;;;0.42;0.42;;;;;;;14.65;56.25;101924.02;1876951;76;21563;-58